sensor_id;sensor_type;location;lat;lon;timestamp;P1;durP1;ratioP1;P2;durP2;ratioP2
37355;SDS011;48747;50.250;18.848;2023-07-31T00:01:02;10.98;;;3.95;;
37355;SDS011;48747;50.250;18.848;2023-07-31T00:03:05;8.58;;;4.12;;
37355;SDS011;48747;50.250;18.848;2023-07-31T00:05:08;9.55;;;4.35;;
37355;SDS011;48747;50.250;18.848;2023-07-31T00:07:11;8.83;;;4.30;;
37355;SDS011;48747;50.250;18.848;2023-07-31T00:09:14;9.38;;;4.28;;
37355;SDS011;48747;50.250;18.848;2023-07-31T00:11:17;7.35;;;4.45;;
37355;SDS011;48747;50.250;18.848;2023-07-31T00:13:20;6.03;;;4.17;;
37355;SDS011;48747;50.250;18.848;2023-07-31T00:15:23;7.10;;;4.35;;
37355;SDS011;48747;50.250;18.848;2023-07-31T00:17:27;6.65;;;3.80;;
37355;SDS011;48747;50.250;18.848;2023-07-31T00:19:30;9.03;;;4.50;;
37355;SDS011;48747;50.250;18.848;2023-07-31T00:21:33;7.58;;;4.05;;
37355;SDS011;48747;50.250;18.848;2023-07-31T00:23:36;5.53;;;4.25;;
37355;SDS011;48747;50.250;18.848;2023-07-31T00:25:39;6.97;;;3.98;;
37355;SDS011;48747;50.250;18.848;2023-07-31T00:27:42;7.50;;;4.12;;
37355;SDS011;48747;50.250;18.848;2023-07-31T00:29:46;6.70;;;4.20;;
37355;SDS011;48747;50.250;18.848;2023-07-31T00:31:49;9.15;;;4.15;;
37355;SDS011;48747;50.250;18.848;2023-07-31T00:33:52;7.53;;;4.33;;
37355;SDS011;48747;50.250;18.848;2023-07-31T00:35:55;10.20;;;4.60;;
37355;SDS011;48747;50.250;18.848;2023-07-31T00:37:58;6.78;;;4.00;;
37355;SDS011;48747;50.250;18.848;2023-07-31T00:40:02;6.20;;;4.33;;
37355;SDS011;48747;50.250;18.848;2023-07-31T00:42:05;6.60;;;4.50;;
37355;SDS011;48747;50.250;18.848;2023-07-31T00:44:08;8.08;;;4.67;;
37355;SDS011;48747;50.250;18.848;2023-07-31T00:46:11;7.65;;;4.50;;
37355;SDS011;48747;50.250;18.848;2023-07-31T00:48:15;8.30;;;4.78;;
37355;SDS011;48747;50.250;18.848;2023-07-31T00:50:18;6.28;;;4.40;;
37355;SDS011;48747;50.250;18.848;2023-07-31T00:52:21;5.83;;;4.65;;
37355;SDS011;48747;50.250;18.848;2023-07-31T00:54:24;8.45;;;4.90;;
37355;SDS011;48747;50.250;18.848;2023-07-31T00:56:27;6.50;;;4.65;;
37355;SDS011;48747;50.250;18.848;2023-07-31T00:58:31;10.63;;;5.35;;
37355;SDS011;48747;50.250;18.848;2023-07-31T01:00:34;9.00;;;4.87;;
37355;SDS011;48747;50.250;18.848;2023-07-31T01:02:37;9.98;;;5.17;;
37355;SDS011;48747;50.250;18.848;2023-07-31T01:04:42;8.48;;;5.20;;
37355;SDS011;48747;50.250;18.848;2023-07-31T01:09:07;5.75;;;4.30;;
37355;SDS011;48747;50.250;18.848;2023-07-31T01:11:31;9.40;;;4.28;;
37355;SDS011;48747;50.250;18.848;2023-07-31T01:13:31;5.62;;;4.30;;
37355;SDS011;48747;50.250;18.848;2023-07-31T01:15:34;5.42;;;4.15;;
37355;SDS011;48747;50.250;18.848;2023-07-31T01:17:37;7.45;;;4.17;;
37355;SDS011;48747;50.250;18.848;2023-07-31T01:19:40;6.53;;;4.47;;
37355;SDS011;48747;50.250;18.848;2023-07-31T01:24:22;7.05;;;4.05;;
37355;SDS011;48747;50.250;18.848;2023-07-31T01:26:28;7.45;;;4.12;;
37355;SDS011;48747;50.250;18.848;2023-07-31T01:30:59;7.78;;;4.10;;
37355;SDS011;48747;50.250;18.848;2023-07-31T01:33:04;6.70;;;3.90;;
37355;SDS011;48747;50.250;18.848;2023-07-31T01:35:09;4.83;;;3.67;;
37355;SDS011;48747;50.250;18.848;2023-07-31T01:37:12;7.22;;;4.75;;
37355;SDS011;48747;50.250;18.848;2023-07-31T01:39:15;6.28;;;4.12;;
37355;SDS011;48747;50.250;18.848;2023-07-31T01:41:19;7.78;;;3.95;;
37355;SDS011;48747;50.250;18.848;2023-07-31T01:43:22;7.90;;;3.98;;
37355;SDS011;48747;50.250;18.848;2023-07-31T01:45:25;8.23;;;3.98;;
37355;SDS011;48747;50.250;18.848;2023-07-31T01:47:28;6.30;;;4.00;;
37355;SDS011;48747;50.250;18.848;2023-07-31T01:49:31;6.65;;;3.90;;
37355;SDS011;48747;50.250;18.848;2023-07-31T01:51:34;6.15;;;4.15;;
37355;SDS011;48747;50.250;18.848;2023-07-31T01:53:37;6.05;;;3.52;;
37355;SDS011;48747;50.250;18.848;2023-07-31T01:55:41;5.90;;;3.77;;
37355;SDS011;48747;50.250;18.848;2023-07-31T01:57:44;7.60;;;3.75;;
37355;SDS011;48747;50.250;18.848;2023-07-31T01:59:47;6.05;;;3.60;;
37355;SDS011;48747;50.250;18.848;2023-07-31T02:01:50;4.45;;;3.35;;
37355;SDS011;48747;50.250;18.848;2023-07-31T02:03:53;8.18;;;3.02;;
37355;SDS011;48747;50.250;18.848;2023-07-31T02:05:56;7.67;;;3.33;;
37355;SDS011;48747;50.250;18.848;2023-07-31T02:07:59;6.45;;;3.60;;
37355;SDS011;48747;50.250;18.848;2023-07-31T02:10:02;4.20;;;3.15;;
37355;SDS011;48747;50.250;18.848;2023-07-31T02:12:05;7.70;;;3.47;;
37355;SDS011;48747;50.250;18.848;2023-07-31T02:14:09;7.72;;;3.10;;
37355;SDS011;48747;50.250;18.848;2023-07-31T02:16:12;5.78;;;3.05;;
37355;SDS011;48747;50.250;18.848;2023-07-31T02:18:15;6.10;;;3.50;;
37355;SDS011;48747;50.250;18.848;2023-07-31T02:20:18;6.45;;;3.20;;
37355;SDS011;48747;50.250;18.848;2023-07-31T02:22:21;6.60;;;2.98;;
37355;SDS011;48747;50.250;18.848;2023-07-31T02:24:26;8.60;;;3.00;;
37355;SDS011;48747;50.250;18.848;2023-07-31T02:26:30;6.33;;;2.95;;
37355;SDS011;48747;50.250;18.848;2023-07-31T02:28:33;5.87;;;3.12;;
37355;SDS011;48747;50.250;18.848;2023-07-31T02:30:36;4.15;;;3.22;;
37355;SDS011;48747;50.250;18.848;2023-07-31T02:32:39;5.15;;;3.10;;
37355;SDS011;48747;50.250;18.848;2023-07-31T02:34:42;7.15;;;2.77;;
37355;SDS011;48747;50.250;18.848;2023-07-31T02:36:45;6.08;;;2.92;;
37355;SDS011;48747;50.250;18.848;2023-07-31T02:38:48;4.15;;;3.08;;
37355;SDS011;48747;50.250;18.848;2023-07-31T02:40:51;4.35;;;3.27;;
37355;SDS011;48747;50.250;18.848;2023-07-31T02:42:54;3.83;;;3.10;;
37355;SDS011;48747;50.250;18.848;2023-07-31T02:44:57;5.08;;;3.25;;
37355;SDS011;48747;50.250;18.848;2023-07-31T02:47:00;6.28;;;3.00;;
37355;SDS011;48747;50.250;18.848;2023-07-31T02:49:04;5.30;;;2.75;;
37355;SDS011;48747;50.250;18.848;2023-07-31T02:51:07;5.75;;;3.10;;
37355;SDS011;48747;50.250;18.848;2023-07-31T02:53:10;4.42;;;2.70;;
37355;SDS011;48747;50.250;18.848;2023-07-31T02:55:13;4.20;;;2.77;;
37355;SDS011;48747;50.250;18.848;2023-07-31T02:57:16;9.15;;;2.83;;
37355;SDS011;48747;50.250;18.848;2023-07-31T02:59:20;3.92;;;2.67;;
37355;SDS011;48747;50.250;18.848;2023-07-31T03:01:23;4.95;;;3.00;;
37355;SDS011;48747;50.250;18.848;2023-07-31T03:03:26;8.13;;;2.85;;
37355;SDS011;48747;50.250;18.848;2023-07-31T03:05:29;4.20;;;2.90;;
37355;SDS011;48747;50.250;18.848;2023-07-31T03:07:32;3.52;;;2.70;;
37355;SDS011;48747;50.250;18.848;2023-07-31T03:09:35;5.55;;;3.02;;
37355;SDS011;48747;50.250;18.848;2023-07-31T03:11:38;3.77;;;2.92;;
37355;SDS011;48747;50.250;18.848;2023-07-31T03:13:41;9.05;;;3.30;;
37355;SDS011;48747;50.250;18.848;2023-07-31T03:15:44;5.60;;;3.20;;
37355;SDS011;48747;50.250;18.848;2023-07-31T03:17:47;6.03;;;3.22;;
37355;SDS011;48747;50.250;18.848;2023-07-31T03:19:50;5.90;;;3.00;;
37355;SDS011;48747;50.250;18.848;2023-07-31T03:21:53;5.53;;;3.00;;
37355;SDS011;48747;50.250;18.848;2023-07-31T03:23:56;5.45;;;3.30;;
37355;SDS011;48747;50.250;18.848;2023-07-31T03:26:00;4.15;;;2.90;;
37355;SDS011;48747;50.250;18.848;2023-07-31T03:28:05;4.85;;;2.95;;
37355;SDS011;48747;50.250;18.848;2023-07-31T03:30:09;5.83;;;2.92;;
37355;SDS011;48747;50.250;18.848;2023-07-31T03:32:12;4.62;;;2.62;;
37355;SDS011;48747;50.250;18.848;2023-07-31T03:34:15;5.40;;;2.87;;
37355;SDS011;48747;50.250;18.848;2023-07-31T03:36:18;4.67;;;2.72;;
37355;SDS011;48747;50.250;18.848;2023-07-31T03:38:21;5.03;;;3.08;;
37355;SDS011;48747;50.250;18.848;2023-07-31T03:40:24;4.37;;;2.70;;
37355;SDS011;48747;50.250;18.848;2023-07-31T03:42:27;6.55;;;2.47;;
37355;SDS011;48747;50.250;18.848;2023-07-31T03:44:30;4.22;;;2.80;;
37355;SDS011;48747;50.250;18.848;2023-07-31T03:46:33;8.38;;;2.70;;
37355;SDS011;48747;50.250;18.848;2023-07-31T03:48:37;5.15;;;2.80;;
37355;SDS011;48747;50.250;18.848;2023-07-31T03:50:40;6.75;;;3.37;;
37355;SDS011;48747;50.250;18.848;2023-07-31T03:52:43;6.78;;;2.70;;
37355;SDS011;48747;50.250;18.848;2023-07-31T03:54:46;5.05;;;3.10;;
37355;SDS011;48747;50.250;18.848;2023-07-31T03:56:49;6.58;;;2.80;;
37355;SDS011;48747;50.250;18.848;2023-07-31T03:58:52;5.95;;;2.77;;
37355;SDS011;48747;50.250;18.848;2023-07-31T04:00:55;5.17;;;2.80;;
37355;SDS011;48747;50.250;18.848;2023-07-31T04:02:58;5.53;;;2.80;;
37355;SDS011;48747;50.250;18.848;2023-07-31T04:05:01;5.62;;;2.83;;
37355;SDS011;48747;50.250;18.848;2023-07-31T04:07:04;7.60;;;3.20;;
37355;SDS011;48747;50.250;18.848;2023-07-31T04:09:07;4.97;;;2.80;;
37355;SDS011;48747;50.250;18.848;2023-07-31T04:11:11;6.22;;;2.85;;
37355;SDS011;48747;50.250;18.848;2023-07-31T04:13:14;9.13;;;3.22;;
37355;SDS011;48747;50.250;18.848;2023-07-31T04:15:17;5.30;;;2.55;;
37355;SDS011;48747;50.250;18.848;2023-07-31T04:17:20;5.75;;;3.02;;
37355;SDS011;48747;50.250;18.848;2023-07-31T04:19:24;5.85;;;3.00;;
37355;SDS011;48747;50.250;18.848;2023-07-31T04:21:27;6.17;;;2.98;;
37355;SDS011;48747;50.250;18.848;2023-07-31T04:23:30;5.70;;;2.75;;
37355;SDS011;48747;50.250;18.848;2023-07-31T04:25:33;7.78;;;2.95;;
37355;SDS011;48747;50.250;18.848;2023-07-31T04:27:36;6.25;;;2.80;;
37355;SDS011;48747;50.250;18.848;2023-07-31T04:29:39;9.68;;;3.10;;
37355;SDS011;48747;50.250;18.848;2023-07-31T04:31:43;6.50;;;3.05;;
37355;SDS011;48747;50.250;18.848;2023-07-31T04:33:46;7.10;;;3.10;;
37355;SDS011;48747;50.250;18.848;2023-07-31T04:35:50;4.85;;;3.12;;
37355;SDS011;48747;50.250;18.848;2023-07-31T04:37:54;6.53;;;3.17;;
37355;SDS011;48747;50.250;18.848;2023-07-31T04:39:57;6.58;;;2.98;;
37355;SDS011;48747;50.250;18.848;2023-07-31T04:42:00;5.22;;;3.35;;
37355;SDS011;48747;50.250;18.848;2023-07-31T04:44:03;5.85;;;2.80;;
37355;SDS011;48747;50.250;18.848;2023-07-31T04:46:06;4.60;;;3.50;;
37355;SDS011;48747;50.250;18.848;2023-07-31T04:48:09;9.20;;;3.20;;
37355;SDS011;48747;50.250;18.848;2023-07-31T04:50:12;6.58;;;3.12;;
37355;SDS011;48747;50.250;18.848;2023-07-31T04:52:16;6.30;;;2.83;;
37355;SDS011;48747;50.250;18.848;2023-07-31T04:54:19;4.83;;;3.00;;
37355;SDS011;48747;50.250;18.848;2023-07-31T04:56:22;7.60;;;3.55;;
37355;SDS011;48747;50.250;18.848;2023-07-31T04:58:25;3.40;;;2.50;;
37355;SDS011;48747;50.250;18.848;2023-07-31T05:00:28;8.40;;;3.30;;
37355;SDS011;48747;50.250;18.848;2023-07-31T05:02:31;8.18;;;3.00;;
37355;SDS011;48747;50.250;18.848;2023-07-31T05:04:34;6.35;;;3.58;;
37355;SDS011;48747;50.250;18.848;2023-07-31T05:06:37;11.65;;;2.95;;
37355;SDS011;48747;50.250;18.848;2023-07-31T05:08:40;4.97;;;2.87;;
37355;SDS011;48747;50.250;18.848;2023-07-31T05:10:43;4.60;;;2.55;;
37355;SDS011;48747;50.250;18.848;2023-07-31T05:12:46;4.15;;;2.77;;
37355;SDS011;48747;50.250;18.848;2023-07-31T05:14:49;4.28;;;2.65;;
37355;SDS011;48747;50.250;18.848;2023-07-31T05:16:52;5.40;;;3.02;;
37355;SDS011;48747;50.250;18.848;2023-07-31T05:18:55;6.92;;;2.50;;
37355;SDS011;48747;50.250;18.848;2023-07-31T05:20:58;6.87;;;2.72;;
37355;SDS011;48747;50.250;18.848;2023-07-31T05:23:01;9.35;;;2.90;;
37355;SDS011;48747;50.250;18.848;2023-07-31T05:25:05;4.78;;;2.70;;
37355;SDS011;48747;50.250;18.848;2023-07-31T05:27:08;11.22;;;2.90;;
37355;SDS011;48747;50.250;18.848;2023-07-31T05:29:11;6.58;;;2.60;;
37355;SDS011;48747;50.250;18.848;2023-07-31T05:31:14;4.72;;;2.35;;
37355;SDS011;48747;50.250;18.848;2023-07-31T05:33:17;6.67;;;2.50;;
37355;SDS011;48747;50.250;18.848;2023-07-31T05:35:20;7.28;;;2.60;;
37355;SDS011;48747;50.250;18.848;2023-07-31T05:37:23;4.83;;;2.90;;
37355;SDS011;48747;50.250;18.848;2023-07-31T05:39:27;6.08;;;2.62;;
37355;SDS011;48747;50.250;18.848;2023-07-31T05:41:30;5.92;;;2.50;;
37355;SDS011;48747;50.250;18.848;2023-07-31T05:43:33;8.53;;;2.90;;
37355;SDS011;48747;50.250;18.848;2023-07-31T05:45:36;4.75;;;2.47;;
37355;SDS011;48747;50.250;18.848;2023-07-31T05:47:39;6.37;;;2.50;;
37355;SDS011;48747;50.250;18.848;2023-07-31T05:49:42;5.33;;;2.22;;
37355;SDS011;48747;50.250;18.848;2023-07-31T05:51:45;6.00;;;2.70;;
37355;SDS011;48747;50.250;18.848;2023-07-31T05:53:48;5.25;;;2.33;;
37355;SDS011;48747;50.250;18.848;2023-07-31T05:55:51;6.35;;;2.70;;
37355;SDS011;48747;50.250;18.848;2023-07-31T05:57:54;5.37;;;2.27;;
37355;SDS011;48747;50.250;18.848;2023-07-31T05:59:57;7.00;;;2.25;;
37355;SDS011;48747;50.250;18.848;2023-07-31T06:02:00;6.42;;;2.58;;
37355;SDS011;48747;50.250;18.848;2023-07-31T06:04:03;7.10;;;2.80;;
37355;SDS011;48747;50.250;18.848;2023-07-31T06:06:06;7.53;;;3.05;;
37355;SDS011;48747;50.250;18.848;2023-07-31T06:08:09;4.20;;;2.42;;
37355;SDS011;48747;50.250;18.848;2023-07-31T06:10:12;6.33;;;2.67;;
37355;SDS011;48747;50.250;18.848;2023-07-31T06:12:15;7.08;;;2.90;;
37355;SDS011;48747;50.250;18.848;2023-07-31T06:14:20;5.28;;;2.50;;
37355;SDS011;48747;50.250;18.848;2023-07-31T06:16:29;5.00;;;1.95;;
37355;SDS011;48747;50.250;18.848;2023-07-31T06:18:28;4.87;;;2.22;;
37355;SDS011;48747;50.250;18.848;2023-07-31T06:20:31;5.78;;;2.20;;
37355;SDS011;48747;50.250;18.848;2023-07-31T06:22:35;5.30;;;2.30;;
37355;SDS011;48747;50.250;18.848;2023-07-31T06:24:38;5.95;;;2.40;;
37355;SDS011;48747;50.250;18.848;2023-07-31T06:26:41;4.97;;;2.22;;
37355;SDS011;48747;50.250;18.848;2023-07-31T06:28:44;5.35;;;2.10;;
37355;SDS011;48747;50.250;18.848;2023-07-31T06:30:47;4.95;;;2.00;;
37355;SDS011;48747;50.250;18.848;2023-07-31T06:32:50;8.40;;;2.10;;
37355;SDS011;48747;50.250;18.848;2023-07-31T06:34:53;5.37;;;2.40;;
37355;SDS011;48747;50.250;18.848;2023-07-31T06:36:56;7.58;;;2.52;;
37355;SDS011;48747;50.250;18.848;2023-07-31T06:38:59;7.62;;;2.12;;
37355;SDS011;48747;50.250;18.848;2023-07-31T06:41:02;7.60;;;2.22;;
37355;SDS011;48747;50.250;18.848;2023-07-31T06:43:05;7.00;;;2.30;;
37355;SDS011;48747;50.250;18.848;2023-07-31T06:45:11;7.17;;;2.47;;
37355;SDS011;48747;50.250;18.848;2023-07-31T06:47:14;3.65;;;1.95;;
37355;SDS011;48747;50.250;18.848;2023-07-31T06:49:17;7.30;;;2.25;;
37355;SDS011;48747;50.250;18.848;2023-07-31T06:51:20;7.62;;;1.82;;
37355;SDS011;48747;50.250;18.848;2023-07-31T06:53:23;4.62;;;2.05;;
37355;SDS011;48747;50.250;18.848;2023-07-31T06:55:26;5.17;;;2.00;;
37355;SDS011;48747;50.250;18.848;2023-07-31T06:57:29;4.37;;;1.98;;
37355;SDS011;48747;50.250;18.848;2023-07-31T06:59:32;4.37;;;2.37;;
37355;SDS011;48747;50.250;18.848;2023-07-31T07:01:35;4.05;;;2.02;;
37355;SDS011;48747;50.250;18.848;2023-07-31T07:03:39;6.72;;;2.55;;
37355;SDS011;48747;50.250;18.848;2023-07-31T07:05:42;8.23;;;2.20;;
37355;SDS011;48747;50.250;18.848;2023-07-31T07:07:45;8.18;;;2.30;;
37355;SDS011;48747;50.250;18.848;2023-07-31T07:09:48;4.65;;;2.00;;
37355;SDS011;48747;50.250;18.848;2023-07-31T07:11:51;5.55;;;1.82;;
37355;SDS011;48747;50.250;18.848;2023-07-31T07:13:54;4.00;;;2.20;;
37355;SDS011;48747;50.250;18.848;2023-07-31T07:15:57;4.25;;;2.20;;
37355;SDS011;48747;50.250;18.848;2023-07-31T07:18:00;4.22;;;2.10;;
37355;SDS011;48747;50.250;18.848;2023-07-31T07:20:04;4.72;;;2.10;;
37355;SDS011;48747;50.250;18.848;2023-07-31T07:22:09;5.92;;;2.30;;
37355;SDS011;48747;50.250;18.848;2023-07-31T07:24:12;5.55;;;2.35;;
37355;SDS011;48747;50.250;18.848;2023-07-31T07:26:15;10.78;;;2.33;;
37355;SDS011;48747;50.250;18.848;2023-07-31T07:28:19;7.92;;;2.50;;
37355;SDS011;48747;50.250;18.848;2023-07-31T07:30:22;5.00;;;2.20;;
37355;SDS011;48747;50.250;18.848;2023-07-31T07:32:27;4.08;;;1.80;;
37355;SDS011;48747;50.250;18.848;2023-07-31T07:34:31;8.93;;;2.85;;
37355;SDS011;48747;50.250;18.848;2023-07-31T07:36:35;8.33;;;2.22;;
37355;SDS011;48747;50.250;18.848;2023-07-31T07:38:38;5.12;;;1.98;;
37355;SDS011;48747;50.250;18.848;2023-07-31T07:40:42;7.25;;;2.10;;
37355;SDS011;48747;50.250;18.848;2023-07-31T07:42:46;5.37;;;2.08;;
37355;SDS011;48747;50.250;18.848;2023-07-31T07:44:49;8.13;;;2.45;;
37355;SDS011;48747;50.250;18.848;2023-07-31T07:46:52;5.28;;;2.15;;
37355;SDS011;48747;50.250;18.848;2023-07-31T07:48:55;8.28;;;2.00;;
37355;SDS011;48747;50.250;18.848;2023-07-31T07:50:58;8.80;;;2.22;;
37355;SDS011;48747;50.250;18.848;2023-07-31T07:53:01;7.35;;;2.30;;
37355;SDS011;48747;50.250;18.848;2023-07-31T07:55:04;4.42;;;2.27;;
37355;SDS011;48747;50.250;18.848;2023-07-31T07:57:07;5.33;;;2.30;;
37355;SDS011;48747;50.250;18.848;2023-07-31T07:59:10;8.25;;;2.85;;
37355;SDS011;48747;50.250;18.848;2023-07-31T08:01:13;5.10;;;2.30;;
37355;SDS011;48747;50.250;18.848;2023-07-31T08:03:16;7.10;;;2.12;;
37355;SDS011;48747;50.250;18.848;2023-07-31T08:05:19;6.25;;;2.20;;
37355;SDS011;48747;50.250;18.848;2023-07-31T08:07:22;7.30;;;2.25;;
37355;SDS011;48747;50.250;18.848;2023-07-31T08:09:25;8.98;;;3.08;;
37355;SDS011;48747;50.250;18.848;2023-07-31T08:11:28;6.28;;;2.22;;
37355;SDS011;48747;50.250;18.848;2023-07-31T08:13:31;6.62;;;1.95;;
37355;SDS011;48747;50.250;18.848;2023-07-31T08:15:35;6.72;;;2.00;;
37355;SDS011;48747;50.250;18.848;2023-07-31T08:17:38;6.97;;;1.92;;
37355;SDS011;48747;50.250;18.848;2023-07-31T08:19:41;4.78;;;1.85;;
37355;SDS011;48747;50.250;18.848;2023-07-31T08:21:45;6.12;;;1.70;;
37355;SDS011;48747;50.250;18.848;2023-07-31T08:23:48;5.90;;;2.02;;
37355;SDS011;48747;50.250;18.848;2023-07-31T08:25:51;4.30;;;1.98;;
37355;SDS011;48747;50.250;18.848;2023-07-31T08:27:54;5.20;;;1.62;;
37355;SDS011;48747;50.250;18.848;2023-07-31T08:29:57;5.15;;;2.00;;
37355;SDS011;48747;50.250;18.848;2023-07-31T08:32:00;5.62;;;2.05;;
37355;SDS011;48747;50.250;18.848;2023-07-31T08:34:03;5.15;;;2.05;;
37355;SDS011;48747;50.250;18.848;2023-07-31T08:36:06;4.58;;;2.20;;
37355;SDS011;48747;50.250;18.848;2023-07-31T08:38:09;5.97;;;1.90;;
37355;SDS011;48747;50.250;18.848;2023-07-31T08:40:14;3.83;;;1.70;;
37355;SDS011;48747;50.250;18.848;2023-07-31T08:42:17;5.00;;;1.85;;
37355;SDS011;48747;50.250;18.848;2023-07-31T08:44:20;6.83;;;2.00;;
37355;SDS011;48747;50.250;18.848;2023-07-31T08:46:24;3.85;;;1.80;;
37355;SDS011;48747;50.250;18.848;2023-07-31T08:48:28;5.75;;;1.82;;
37355;SDS011;48747;50.250;18.848;2023-07-31T08:50:31;5.92;;;1.87;;
37355;SDS011;48747;50.250;18.848;2023-07-31T08:52:34;4.58;;;1.77;;
37355;SDS011;48747;50.250;18.848;2023-07-31T08:54:37;5.42;;;1.82;;
37355;SDS011;48747;50.250;18.848;2023-07-31T08:56:41;3.55;;;1.75;;
37355;SDS011;48747;50.250;18.848;2023-07-31T08:58:45;7.50;;;2.20;;
37355;SDS011;48747;50.250;18.848;2023-07-31T09:00:49;5.87;;;1.92;;
37355;SDS011;48747;50.250;18.848;2023-07-31T09:03:00;5.97;;;1.80;;
37355;SDS011;48747;50.250;18.848;2023-07-31T09:05:08;4.35;;;1.60;;
37355;SDS011;48747;50.250;18.848;2023-07-31T09:07:13;4.78;;;1.90;;
37355;SDS011;48747;50.250;18.848;2023-07-31T09:09:17;5.00;;;2.02;;
37355;SDS011;48747;50.250;18.848;2023-07-31T09:11:21;5.12;;;1.90;;
37355;SDS011;48747;50.250;18.848;2023-07-31T09:13:30;5.55;;;1.95;;
37355;SDS011;48747;50.250;18.848;2023-07-31T09:15:34;8.60;;;2.25;;
37355;SDS011;48747;50.250;18.848;2023-07-31T09:17:37;4.00;;;2.00;;
37355;SDS011;48747;50.250;18.848;2023-07-31T09:19:40;4.70;;;1.92;;
37355;SDS011;48747;50.250;18.848;2023-07-31T09:21:55;4.30;;;1.92;;
37355;SDS011;48747;50.250;18.848;2023-07-31T09:23:54;4.90;;;1.70;;
37355;SDS011;48747;50.250;18.848;2023-07-31T09:25:57;4.78;;;1.70;;
37355;SDS011;48747;50.250;18.848;2023-07-31T09:28:08;2.77;;;1.50;;
37355;SDS011;48747;50.250;18.848;2023-07-31T09:30:12;6.20;;;2.05;;
37355;SDS011;48747;50.250;18.848;2023-07-31T09:32:16;4.42;;;2.08;;
37355;SDS011;48747;50.250;18.848;2023-07-31T09:34:19;4.53;;;1.70;;
37355;SDS011;48747;50.250;18.848;2023-07-31T09:36:24;4.83;;;1.90;;
37355;SDS011;48747;50.250;18.848;2023-07-31T09:38:27;6.90;;;1.80;;
37355;SDS011;48747;50.250;18.848;2023-07-31T09:40:35;5.37;;;1.90;;
37355;SDS011;48747;50.250;18.848;2023-07-31T09:42:36;4.20;;;1.70;;
37355;SDS011;48747;50.250;18.848;2023-07-31T09:44:40;3.67;;;1.80;;
37355;SDS011;48747;50.250;18.848;2023-07-31T09:46:43;4.03;;;1.85;;
37355;SDS011;48747;50.250;18.848;2023-07-31T09:48:46;4.20;;;1.72;;
37355;SDS011;48747;50.250;18.848;2023-07-31T09:50:49;7.60;;;1.90;;
37355;SDS011;48747;50.250;18.848;2023-07-31T09:52:52;4.95;;;1.70;;
37355;SDS011;48747;50.250;18.848;2023-07-31T09:54:56;4.55;;;1.62;;
37355;SDS011;48747;50.250;18.848;2023-07-31T09:56:59;4.35;;;1.87;;
37355;SDS011;48747;50.250;18.848;2023-07-31T09:59:03;6.47;;;1.80;;
37355;SDS011;48747;50.250;18.848;2023-07-31T10:01:07;6.55;;;1.72;;
37355;SDS011;48747;50.250;18.848;2023-07-31T10:03:10;5.50;;;2.02;;
37355;SDS011;48747;50.250;18.848;2023-07-31T10:05:14;5.83;;;1.98;;
37355;SDS011;48747;50.250;18.848;2023-07-31T10:07:18;4.30;;;1.70;;
37355;SDS011;48747;50.250;18.848;2023-07-31T10:09:28;4.55;;;1.92;;
37355;SDS011;48747;50.250;18.848;2023-07-31T10:11:29;4.40;;;1.65;;
37355;SDS011;48747;50.250;18.848;2023-07-31T10:13:34;3.20;;;1.62;;
37355;SDS011;48747;50.250;18.848;2023-07-31T10:15:38;5.47;;;1.52;;
37355;SDS011;48747;50.250;18.848;2023-07-31T10:17:44;4.60;;;2.10;;
37355;SDS011;48747;50.250;18.848;2023-07-31T10:19:52;6.85;;;2.10;;
37355;SDS011;48747;50.250;18.848;2023-07-31T10:21:55;7.45;;;1.95;;
37355;SDS011;48747;50.250;18.848;2023-07-31T10:24:01;4.62;;;1.57;;
37355;SDS011;48747;50.250;18.848;2023-07-31T10:26:07;6.95;;;1.72;;
37355;SDS011;48747;50.250;18.848;2023-07-31T10:28:10;6.90;;;1.80;;
37355;SDS011;48747;50.250;18.848;2023-07-31T10:30:21;5.45;;;1.70;;
37355;SDS011;48747;50.250;18.848;2023-07-31T10:32:21;3.17;;;1.62;;
37355;SDS011;48747;50.250;18.848;2023-07-31T10:34:27;3.70;;;1.80;;
37355;SDS011;48747;50.250;18.848;2023-07-31T10:36:34;3.12;;;1.60;;
37355;SDS011;48747;50.250;18.848;2023-07-31T10:38:37;4.62;;;1.57;;
37355;SDS011;48747;50.250;18.848;2023-07-31T10:40:40;3.92;;;1.42;;
37355;SDS011;48747;50.250;18.848;2023-07-31T10:42:47;4.72;;;1.67;;
37355;SDS011;48747;50.250;18.848;2023-07-31T10:45:00;4.62;;;1.82;;
37355;SDS011;48747;50.250;18.848;2023-07-31T10:47:02;6.58;;;1.90;;
37355;SDS011;48747;50.250;18.848;2023-07-31T10:49:06;4.65;;;2.02;;
37355;SDS011;48747;50.250;18.848;2023-07-31T10:51:10;3.35;;;1.80;;
37355;SDS011;48747;50.250;18.848;2023-07-31T10:55:39;4.28;;;1.70;;
37355;SDS011;48747;50.250;18.848;2023-07-31T10:57:48;5.83;;;1.60;;
37355;SDS011;48747;50.250;18.848;2023-07-31T10:59:50;4.10;;;1.60;;
37355;SDS011;48747;50.250;18.848;2023-07-31T11:01:53;6.10;;;1.65;;
37355;SDS011;48747;50.250;18.848;2023-07-31T11:04:07;4.83;;;1.70;;
37355;SDS011;48747;50.250;18.848;2023-07-31T11:06:10;5.37;;;1.75;;
37355;SDS011;48747;50.250;18.848;2023-07-31T11:08:17;6.28;;;1.77;;
37355;SDS011;48747;50.250;18.848;2023-07-31T11:10:21;5.55;;;1.80;;
37355;SDS011;48747;50.250;18.848;2023-07-31T11:12:27;6.17;;;1.80;;
37355;SDS011;48747;50.250;18.848;2023-07-31T11:14:32;3.17;;;1.60;;
37355;SDS011;48747;50.250;18.848;2023-07-31T11:16:35;4.92;;;2.10;;
37355;SDS011;48747;50.250;18.848;2023-07-31T11:18:39;4.10;;;1.57;;
37355;SDS011;48747;50.250;18.848;2023-07-31T11:20:43;3.15;;;1.90;;
37355;SDS011;48747;50.250;18.848;2023-07-31T11:22:46;3.50;;;1.60;;
37355;SDS011;48747;50.250;18.848;2023-07-31T11:24:49;4.10;;;1.60;;
37355;SDS011;48747;50.250;18.848;2023-07-31T11:26:52;3.83;;;2.10;;
37355;SDS011;48747;50.250;18.848;2023-07-31T11:28:55;4.50;;;1.92;;
37355;SDS011;48747;50.250;18.848;2023-07-31T11:30:59;3.37;;;1.50;;
37355;SDS011;48747;50.250;18.848;2023-07-31T11:33:02;4.53;;;1.67;;
37355;SDS011;48747;50.250;18.848;2023-07-31T11:35:07;4.62;;;1.92;;
37355;SDS011;48747;50.250;18.848;2023-07-31T11:37:13;3.42;;;1.70;;
37355;SDS011;48747;50.250;18.848;2023-07-31T11:39:16;3.72;;;1.50;;
37355;SDS011;48747;50.250;18.848;2023-07-31T11:41:19;4.62;;;1.80;;
37355;SDS011;48747;50.250;18.848;2023-07-31T11:43:22;4.10;;;1.80;;
37355;SDS011;48747;50.250;18.848;2023-07-31T11:45:26;4.55;;;1.98;;
37355;SDS011;48747;50.250;18.848;2023-07-31T11:47:29;3.42;;;1.52;;
37355;SDS011;48747;50.250;18.848;2023-07-31T11:49:36;3.62;;;1.70;;
37355;SDS011;48747;50.250;18.848;2023-07-31T11:51:40;3.55;;;1.90;;
37355;SDS011;48747;50.250;18.848;2023-07-31T11:53:44;4.58;;;2.05;;
37355;SDS011;48747;50.250;18.848;2023-07-31T11:55:55;4.17;;;1.85;;
37355;SDS011;48747;50.250;18.848;2023-07-31T11:58:00;5.45;;;1.67;;
37355;SDS011;48747;50.250;18.848;2023-07-31T12:00:03;4.75;;;1.62;;
37355;SDS011;48747;50.250;18.848;2023-07-31T12:02:08;6.67;;;1.65;;
37355;SDS011;48747;50.250;18.848;2023-07-31T12:04:11;4.47;;;1.77;;
37355;SDS011;48747;50.250;18.848;2023-07-31T12:06:14;5.28;;;1.70;;
37355;SDS011;48747;50.250;18.848;2023-07-31T12:08:18;3.80;;;1.57;;
37355;SDS011;48747;50.250;18.848;2023-07-31T12:10:30;3.05;;;1.62;;
37355;SDS011;48747;50.250;18.848;2023-07-31T12:12:34;5.35;;;1.80;;
37355;SDS011;48747;50.250;18.848;2023-07-31T12:14:37;5.35;;;2.58;;
37355;SDS011;48747;50.250;18.848;2023-07-31T12:16:44;4.72;;;2.17;;
37355;SDS011;48747;50.250;18.848;2023-07-31T12:18:49;7.17;;;2.00;;
37355;SDS011;48747;50.250;18.848;2023-07-31T12:20:55;5.03;;;1.87;;
37355;SDS011;48747;50.250;18.848;2023-07-31T12:23:00;5.22;;;1.65;;